sensor_id;sensor_type;location;lat;lon;timestamp;P1;durP1;ratioP1;P2;durP2;ratioP2
72125;SDS011;59999;51.676;22.650;2023-08-31T00:00:45;8.57;;;4.07;;
72125;SDS011;59999;51.676;22.650;2023-08-31T00:03:27;9.60;;;3.92;;
72125;SDS011;59999;51.676;22.650;2023-08-31T00:05:54;9.13;;;3.45;;
72125;SDS011;59999;51.676;22.650;2023-08-31T00:08:20;7.80;;;3.60;;
72125;SDS011;59999;51.676;22.650;2023-08-31T00:10:54;8.67;;;3.80;;
72125;SDS011;59999;51.676;22.650;2023-08-31T00:13:21;9.90;;;4.30;;
72125;SDS011;59999;51.676;22.650;2023-08-31T00:15:47;12.55;;;4.38;;
72125;SDS011;59999;51.676;22.650;2023-08-31T00:18:13;9.20;;;3.80;;
72125;SDS011;59999;51.676;22.650;2023-08-31T00:20:41;8.93;;;4.03;;
72125;SDS011;59999;51.676;22.650;2023-08-31T00:23:08;10.40;;;4.00;;
72125;SDS011;59999;51.676;22.650;2023-08-31T00:25:34;13.30;;;4.10;;
72125;SDS011;59999;51.676;22.650;2023-08-31T00:28:00;9.30;;;3.47;;
72125;SDS011;59999;51.676;22.650;2023-08-31T00:30:30;15.90;;;3.80;;
72125;SDS011;59999;51.676;22.650;2023-08-31T00:32:58;7.30;;;3.20;;
72125;SDS011;59999;51.676;22.650;2023-08-31T00:35:26;9.27;;;3.50;;
72125;SDS011;59999;51.676;22.650;2023-08-31T00:37:53;8.90;;;3.58;;
72125;SDS011;59999;51.676;22.650;2023-08-31T00:40:24;10.20;;;3.75;;
72125;SDS011;59999;51.676;22.650;2023-08-31T00:42:51;7.97;;;3.17;;
72125;SDS011;59999;51.676;22.650;2023-08-31T00:45:17;10.37;;;3.70;;
72125;SDS011;59999;51.676;22.650;2023-08-31T00:47:45;8.63;;;3.65;;
72125;SDS011;59999;51.676;22.650;2023-08-31T00:50:13;10.60;;;3.55;;
72125;SDS011;59999;51.676;22.650;2023-08-31T00:52:39;8.18;;;3.63;;
72125;SDS011;59999;51.676;22.650;2023-08-31T00:55:07;10.30;;;3.87;;
72125;SDS011;59999;51.676;22.650;2023-08-31T00:57:34;9.38;;;3.90;;
72125;SDS011;59999;51.676;22.650;2023-08-31T01:00:00;11.35;;;4.22;;
72125;SDS011;59999;51.676;22.650;2023-08-31T01:08:12;12.80;;;5.07;;
72125;SDS011;59999;51.676;22.650;2023-08-31T01:13:38;9.82;;;4.35;;
72125;SDS011;59999;51.676;22.650;2023-08-31T01:16:07;11.48;;;4.75;;
72125;SDS011;59999;51.676;22.650;2023-08-31T01:18:33;11.30;;;4.63;;
72125;SDS011;59999;51.676;22.650;2023-08-31T01:21:11;11.93;;;4.22;;
72125;SDS011;59999;51.676;22.650;2023-08-31T01:26:21;11.63;;;4.28;;
72125;SDS011;59999;51.676;22.650;2023-08-31T01:28:48;10.43;;;4.60;;
72125;SDS011;59999;51.676;22.650;2023-08-31T01:31:15;10.33;;;4.47;;
72125;SDS011;59999;51.676;22.650;2023-08-31T01:33:41;13.68;;;4.32;;
72125;SDS011;59999;51.676;22.650;2023-08-31T01:38:55;13.00;;;4.57;;
72125;SDS011;59999;51.676;22.650;2023-08-31T01:41:36;11.10;;;4.65;;
72125;SDS011;59999;51.676;22.650;2023-08-31T01:44:06;10.97;;;4.50;;
72125;SDS011;59999;51.676;22.650;2023-08-31T01:46:34;12.05;;;4.65;;
72125;SDS011;59999;51.676;22.650;2023-08-31T01:49:00;10.23;;;4.68;;
72125;SDS011;59999;51.676;22.650;2023-08-31T01:51:26;12.63;;;5.13;;
72125;SDS011;59999;51.676;22.650;2023-08-31T01:53:52;12.20;;;5.17;;
72125;SDS011;59999;51.676;22.650;2023-08-31T01:56:18;13.30;;;4.65;;
72125;SDS011;59999;51.676;22.650;2023-08-31T01:58:44;16.02;;;4.97;;
72125;SDS011;59999;51.676;22.650;2023-08-31T02:01:10;10.80;;;4.55;;
72125;SDS011;59999;51.676;22.650;2023-08-31T02:03:36;13.05;;;5.18;;
72125;SDS011;59999;51.676;22.650;2023-08-31T02:06:02;12.80;;;4.80;;
72125;SDS011;59999;51.676;22.650;2023-08-31T02:08:29;11.67;;;4.87;;
72125;SDS011;59999;51.676;22.650;2023-08-31T02:10:55;9.85;;;4.38;;
72125;SDS011;59999;51.676;22.650;2023-08-31T02:13:21;12.30;;;4.85;;
72125;SDS011;59999;51.676;22.650;2023-08-31T02:15:50;14.30;;;4.87;;
72125;SDS011;59999;51.676;22.650;2023-08-31T02:18:17;12.77;;;4.85;;
72125;SDS011;59999;51.676;22.650;2023-08-31T02:20:42;10.40;;;3.95;;
72125;SDS011;59999;51.676;22.650;2023-08-31T02:23:08;9.77;;;3.97;;
72125;SDS011;59999;51.676;22.650;2023-08-31T02:25:35;13.45;;;4.78;;
72125;SDS011;59999;51.676;22.650;2023-08-31T02:28:01;10.50;;;4.53;;
72125;SDS011;59999;51.676;22.650;2023-08-31T02:30:26;11.20;;;4.77;;
72125;SDS011;59999;51.676;22.650;2023-08-31T02:32:52;10.73;;;4.18;;
72125;SDS011;59999;51.676;22.650;2023-08-31T02:35:18;13.32;;;4.38;;
72125;SDS011;59999;51.676;22.650;2023-08-31T02:37:44;11.63;;;4.70;;
72125;SDS011;59999;51.676;22.650;2023-08-31T02:40:10;10.97;;;3.83;;
72125;SDS011;59999;51.676;22.650;2023-08-31T02:42:37;10.50;;;4.50;;
72125;SDS011;59999;51.676;22.650;2023-08-31T02:45:03;9.88;;;4.30;;
72125;SDS011;59999;51.676;22.650;2023-08-31T02:47:29;8.80;;;3.90;;
72125;SDS011;59999;51.676;22.650;2023-08-31T02:49:55;8.52;;;3.90;;
72125;SDS011;59999;51.676;22.650;2023-08-31T02:52:21;8.07;;;3.42;;
72125;SDS011;59999;51.676;22.650;2023-08-31T02:54:47;10.50;;;4.30;;
72125;SDS011;59999;51.676;22.650;2023-08-31T02:57:14;9.00;;;3.95;;
72125;SDS011;59999;51.676;22.650;2023-08-31T02:59:43;8.43;;;3.70;;
72125;SDS011;59999;51.676;22.650;2023-08-31T03:02:09;9.17;;;4.13;;
72125;SDS011;59999;51.676;22.650;2023-08-31T03:04:35;10.73;;;4.00;;
72125;SDS011;59999;51.676;22.650;2023-08-31T03:07:03;10.05;;;4.68;;
72125;SDS011;59999;51.676;22.650;2023-08-31T03:09:29;11.55;;;4.97;;
72125;SDS011;59999;51.676;22.650;2023-08-31T03:11:55;10.38;;;5.03;;
72125;SDS011;59999;51.676;22.650;2023-08-31T03:14:21;11.73;;;5.03;;
72125;SDS011;59999;51.676;22.650;2023-08-31T03:16:48;11.23;;;4.82;;
72125;SDS011;59999;51.676;22.650;2023-08-31T03:19:14;11.52;;;4.65;;
72125;SDS011;59999;51.676;22.650;2023-08-31T03:21:40;11.27;;;4.88;;
72125;SDS011;59999;51.676;22.650;2023-08-31T03:24:06;11.87;;;5.17;;
72125;SDS011;59999;51.676;22.650;2023-08-31T03:26:32;12.88;;;5.00;;
72125;SDS011;59999;51.676;22.650;2023-08-31T03:28:59;13.43;;;5.00;;
72125;SDS011;59999;51.676;22.650;2023-08-31T03:31:26;13.38;;;5.50;;
72125;SDS011;59999;51.676;22.650;2023-08-31T03:33:51;11.37;;;4.90;;
72125;SDS011;59999;51.676;22.650;2023-08-31T03:36:17;12.25;;;5.30;;
72125;SDS011;59999;51.676;22.650;2023-08-31T03:38:43;11.35;;;4.93;;
72125;SDS011;59999;51.676;22.650;2023-08-31T03:41:09;11.40;;;4.97;;
72125;SDS011;59999;51.676;22.650;2023-08-31T03:43:35;11.88;;;5.50;;
72125;SDS011;59999;51.676;22.650;2023-08-31T03:46:01;12.80;;;5.35;;
72125;SDS011;59999;51.676;22.650;2023-08-31T03:48:27;13.05;;;5.40;;
72125;SDS011;59999;51.676;22.650;2023-08-31T03:50:54;12.10;;;5.45;;
72125;SDS011;59999;51.676;22.650;2023-08-31T03:53:20;13.07;;;5.70;;
72125;SDS011;59999;51.676;22.650;2023-08-31T03:55:46;13.35;;;5.75;;
72125;SDS011;59999;51.676;22.650;2023-08-31T03:58:12;13.60;;;5.70;;
72125;SDS011;59999;51.676;22.650;2023-08-31T04:00:38;15.52;;;6.13;;
72125;SDS011;59999;51.676;22.650;2023-08-31T04:03:05;14.13;;;6.23;;
72125;SDS011;59999;51.676;22.650;2023-08-31T04:05:32;16.33;;;6.20;;
72125;SDS011;59999;51.676;22.650;2023-08-31T04:07:59;14.60;;;6.25;;
72125;SDS011;59999;51.676;22.650;2023-08-31T04:10:25;15.73;;;6.30;;
72125;SDS011;59999;51.676;22.650;2023-08-31T04:12:51;18.70;;;6.73;;
72125;SDS011;59999;51.676;22.650;2023-08-31T04:15:18;16.63;;;7.40;;
72125;SDS011;59999;51.676;22.650;2023-08-31T04:17:44;19.38;;;7.45;;
72125;SDS011;59999;51.676;22.650;2023-08-31T04:20:10;17.70;;;7.82;;
72125;SDS011;59999;51.676;22.650;2023-08-31T04:22:37;17.13;;;7.10;;
72125;SDS011;59999;51.676;22.650;2023-08-31T04:25:03;18.42;;;7.05;;
72125;SDS011;59999;51.676;22.650;2023-08-31T04:27:29;17.45;;;7.82;;
72125;SDS011;59999;51.676;22.650;2023-08-31T04:29:58;21.98;;;8.60;;
72125;SDS011;59999;51.676;22.650;2023-08-31T04:32:24;20.70;;;8.65;;
72125;SDS011;59999;51.676;22.650;2023-08-31T04:34:51;24.70;;;8.50;;
72125;SDS011;59999;51.676;22.650;2023-08-31T04:37:17;22.05;;;8.43;;
72125;SDS011;59999;51.676;22.650;2023-08-31T04:39:43;16.85;;;7.60;;
72125;SDS011;59999;51.676;22.650;2023-08-31T04:42:09;17.67;;;7.80;;
72125;SDS011;59999;51.676;22.650;2023-08-31T04:44:35;19.40;;;8.40;;
72125;SDS011;59999;51.676;22.650;2023-08-31T04:47:01;23.73;;;8.75;;
72125;SDS011;59999;51.676;22.650;2023-08-31T04:49:27;18.90;;;8.32;;
72125;SDS011;59999;51.676;22.650;2023-08-31T04:51:53;22.13;;;7.67;;
72125;SDS011;59999;51.676;22.650;2023-08-31T04:54:19;19.98;;;7.95;;
72125;SDS011;59999;51.676;22.650;2023-08-31T04:56:44;22.23;;;8.67;;
72125;SDS011;59999;51.676;22.650;2023-08-31T04:59:10;19.92;;;8.85;;
72125;SDS011;59999;51.676;22.650;2023-08-31T05:01:36;19.17;;;8.50;;
72125;SDS011;59999;51.676;22.650;2023-08-31T05:04:02;22.27;;;8.43;;
72125;SDS011;59999;51.676;22.650;2023-08-31T05:06:28;20.67;;;9.13;;
72125;SDS011;59999;51.676;22.650;2023-08-31T05:08:54;19.10;;;7.70;;
72125;SDS011;59999;51.676;22.650;2023-08-31T05:11:20;17.35;;;7.57;;
72125;SDS011;59999;51.676;22.650;2023-08-31T05:13:47;18.48;;;7.82;;
72125;SDS011;59999;51.676;22.650;2023-08-31T05:16:13;18.63;;;7.37;;
72125;SDS011;59999;51.676;22.650;2023-08-31T05:18:40;17.63;;;7.18;;
72125;SDS011;59999;51.676;22.650;2023-08-31T05:21:06;21.27;;;8.05;;
72125;SDS011;59999;51.676;22.650;2023-08-31T05:23:32;20.27;;;8.25;;
72125;SDS011;59999;51.676;22.650;2023-08-31T05:25:58;19.20;;;7.93;;
72125;SDS011;59999;51.676;22.650;2023-08-31T05:28:24;18.13;;;8.33;;
72125;SDS011;59999;51.676;22.650;2023-08-31T05:30:50;18.63;;;7.88;;
72125;SDS011;59999;51.676;22.650;2023-08-31T05:33:17;17.42;;;7.50;;
72125;SDS011;59999;51.676;22.650;2023-08-31T05:35:44;19.87;;;7.40;;
72125;SDS011;59999;51.676;22.650;2023-08-31T05:38:11;18.08;;;7.78;;
72125;SDS011;59999;51.676;22.650;2023-08-31T05:40:37;22.50;;;8.23;;
72125;SDS011;59999;51.676;22.650;2023-08-31T05:43:04;18.67;;;8.00;;
72125;SDS011;59999;51.676;22.650;2023-08-31T05:45:33;18.90;;;8.52;;
72125;SDS011;59999;51.676;22.650;2023-08-31T05:47:59;19.47;;;7.90;;
72125;SDS011;59999;51.676;22.650;2023-08-31T05:50:26;20.42;;;8.30;;
72125;SDS011;59999;51.676;22.650;2023-08-31T05:52:53;19.25;;;8.60;;
72125;SDS011;59999;51.676;22.650;2023-08-31T05:55:19;18.08;;;7.20;;
72125;SDS011;59999;51.676;22.650;2023-08-31T05:57:46;20.73;;;7.88;;
72125;SDS011;59999;51.676;22.650;2023-08-31T06:00:12;16.93;;;7.13;;
72125;SDS011;59999;51.676;22.650;2023-08-31T06:02:38;18.70;;;8.45;;
72125;SDS011;59999;51.676;22.650;2023-08-31T06:05:04;17.02;;;7.22;;
72125;SDS011;59999;51.676;22.650;2023-08-31T06:07:31;16.50;;;7.38;;
72125;SDS011;59999;51.676;22.650;2023-08-31T06:09:57;18.27;;;7.73;;
72125;SDS011;59999;51.676;22.650;2023-08-31T06:12:23;16.95;;;7.47;;
72125;SDS011;59999;51.676;22.650;2023-08-31T06:14:49;23.92;;;8.52;;
72125;SDS011;59999;51.676;22.650;2023-08-31T06:17:15;17.92;;;7.32;;
72125;SDS011;59999;51.676;22.650;2023-08-31T06:19:41;19.43;;;7.90;;
72125;SDS011;59999;51.676;22.650;2023-08-31T06:22:07;16.23;;;7.22;;
72125;SDS011;59999;51.676;22.650;2023-08-31T06:24:33;17.13;;;7.65;;
72125;SDS011;59999;51.676;22.650;2023-08-31T06:27:00;16.20;;;7.00;;
72125;SDS011;59999;51.676;22.650;2023-08-31T06:29:26;17.27;;;7.23;;
72125;SDS011;59999;51.676;22.650;2023-08-31T06:31:52;16.45;;;7.60;;
72125;SDS011;59999;51.676;22.650;2023-08-31T06:34:18;17.10;;;7.70;;
72125;SDS011;59999;51.676;22.650;2023-08-31T06:36:44;13.10;;;5.85;;
72125;SDS011;59999;51.676;22.650;2023-08-31T06:39:10;21.87;;;7.63;;
72125;SDS011;59999;51.676;22.650;2023-08-31T06:41:36;16.48;;;7.25;;
72125;SDS011;59999;51.676;22.650;2023-08-31T06:44:02;18.35;;;7.30;;
72125;SDS011;59999;51.676;22.650;2023-08-31T06:46:30;17.20;;;7.33;;
72125;SDS011;59999;51.676;22.650;2023-08-31T06:48:59;16.27;;;7.15;;
72125;SDS011;59999;51.676;22.650;2023-08-31T06:51:25;21.25;;;7.95;;
72125;SDS011;59999;51.676;22.650;2023-08-31T06:53:51;16.60;;;7.35;;
72125;SDS011;59999;51.676;22.650;2023-08-31T06:56:17;17.53;;;7.60;;
72125;SDS011;59999;51.676;22.650;2023-08-31T06:58:43;16.93;;;7.67;;
72125;SDS011;59999;51.676;22.650;2023-08-31T07:01:11;16.17;;;7.20;;
72125;SDS011;59999;51.676;22.650;2023-08-31T07:03:38;15.63;;;7.38;;
72125;SDS011;59999;51.676;22.650;2023-08-31T07:06:04;13.70;;;6.87;;
72125;SDS011;59999;51.676;22.650;2023-08-31T07:08:30;14.52;;;6.57;;
72125;SDS011;59999;51.676;22.650;2023-08-31T07:10:56;14.70;;;7.00;;
72125;SDS011;59999;51.676;22.650;2023-08-31T07:13:22;12.98;;;6.15;;
72125;SDS011;59999;51.676;22.650;2023-08-31T07:15:48;10.27;;;5.30;;
72125;SDS011;59999;51.676;22.650;2023-08-31T07:18:15;13.35;;;5.85;;
72125;SDS011;59999;51.676;22.650;2023-08-31T07:20:41;12.48;;;5.03;;
72125;SDS011;59999;51.676;22.650;2023-08-31T07:23:07;10.50;;;5.00;;
72125;SDS011;59999;51.676;22.650;2023-08-31T07:25:33;12.30;;;5.07;;
72125;SDS011;59999;51.676;22.650;2023-08-31T07:27:59;11.30;;;5.05;;
72125;SDS011;59999;51.676;22.650;2023-08-31T07:30:25;10.90;;;5.07;;
72125;SDS011;59999;51.676;22.650;2023-08-31T07:32:50;8.27;;;3.73;;
72125;SDS011;59999;51.676;22.650;2023-08-31T07:35:17;8.32;;;3.60;;
72125;SDS011;59999;51.676;22.650;2023-08-31T07:37:42;6.90;;;2.92;;
72125;SDS011;59999;51.676;22.650;2023-08-31T07:40:09;7.38;;;3.05;;
72125;SDS011;59999;51.676;22.650;2023-08-31T07:42:35;7.00;;;2.90;;
72125;SDS011;59999;51.676;22.650;2023-08-31T07:45:02;6.90;;;2.83;;
72125;SDS011;59999;51.676;22.650;2023-08-31T07:47:31;7.78;;;3.40;;
72125;SDS011;59999;51.676;22.650;2023-08-31T07:49:57;6.90;;;3.20;;
72125;SDS011;59999;51.676;22.650;2023-08-31T07:52:22;7.60;;;3.47;;
72125;SDS011;59999;51.676;22.650;2023-08-31T07:54:48;7.15;;;3.35;;
72125;SDS011;59999;51.676;22.650;2023-08-31T07:57:14;6.45;;;2.90;;
72125;SDS011;59999;51.676;22.650;2023-08-31T07:59:40;7.77;;;3.47;;
72125;SDS011;59999;51.676;22.650;2023-08-31T08:02:06;8.90;;;3.58;;
72125;SDS011;59999;51.676;22.650;2023-08-31T08:04:32;9.68;;;3.90;;
72125;SDS011;59999;51.676;22.650;2023-08-31T08:06:58;9.57;;;4.50;;
72125;SDS011;59999;51.676;22.650;2023-08-31T08:09:24;10.45;;;5.22;;
72125;SDS011;59999;51.676;22.650;2023-08-31T08:11:50;14.80;;;7.35;;
72125;SDS011;59999;51.676;22.650;2023-08-31T08:14:16;11.45;;;6.05;;
72125;SDS011;59999;51.676;22.650;2023-08-31T08:16:42;10.87;;;5.70;;
72125;SDS011;59999;51.676;22.650;2023-08-31T08:19:08;10.82;;;5.72;;
72125;SDS011;59999;51.676;22.650;2023-08-31T08:21:34;11.52;;;5.38;;
72125;SDS011;59999;51.676;22.650;2023-08-31T08:24:00;10.27;;;4.80;;
72125;SDS011;59999;51.676;22.650;2023-08-31T08:26:26;11.40;;;6.00;;
72125;SDS011;59999;51.676;22.650;2023-08-31T08:28:52;11.63;;;5.10;;
72125;SDS011;59999;51.676;22.650;2023-08-31T08:31:18;11.53;;;5.80;;
72125;SDS011;59999;51.676;22.650;2023-08-31T08:33:44;11.60;;;5.57;;
72125;SDS011;59999;51.676;22.650;2023-08-31T08:36:09;11.05;;;4.05;;
72125;SDS011;59999;51.676;22.650;2023-08-31T08:38:35;11.95;;;5.35;;
72125;SDS011;59999;51.676;22.650;2023-08-31T08:41:05;9.67;;;4.70;;
72125;SDS011;59999;51.676;22.650;2023-08-31T08:43:34;9.95;;;4.60;;
72125;SDS011;59999;51.676;22.650;2023-08-31T08:46:04;12.00;;;5.10;;
72125;SDS011;59999;51.676;22.650;2023-08-31T08:48:32;9.63;;;5.00;;
72125;SDS011;59999;51.676;22.650;2023-08-31T08:51:00;10.18;;;4.82;;
72125;SDS011;59999;51.676;22.650;2023-08-31T08:53:29;8.95;;;4.60;;
72125;SDS011;59999;51.676;22.650;2023-08-31T08:55:55;10.20;;;5.07;;
72125;SDS011;59999;51.676;22.650;2023-08-31T08:58:21;10.23;;;5.03;;
72125;SDS011;59999;51.676;22.650;2023-08-31T09:00:47;11.10;;;5.47;;
72125;SDS011;59999;51.676;22.650;2023-08-31T09:03:14;9.98;;;5.13;;
72125;SDS011;59999;51.676;22.650;2023-08-31T09:05:40;10.35;;;5.38;;
72125;SDS011;59999;51.676;22.650;2023-08-31T09:08:07;10.20;;;5.53;;
72125;SDS011;59999;51.676;22.650;2023-08-31T09:10:43;9.30;;;4.82;;
72125;SDS011;59999;51.676;22.650;2023-08-31T09:13:13;9.53;;;4.33;;
72125;SDS011;59999;51.676;22.650;2023-08-31T09:15:44;10.35;;;4.82;;
72125;SDS011;59999;51.676;22.650;2023-08-31T09:18:15;9.15;;;4.88;;
72125;SDS011;59999;51.676;22.650;2023-08-31T09:20:45;8.80;;;4.57;;
72125;SDS011;59999;51.676;22.650;2023-08-31T09:23:13;9.50;;;4.97;;
72125;SDS011;59999;51.676;22.650;2023-08-31T09:25:46;8.90;;;4.00;;
72125;SDS011;59999;51.676;22.650;2023-08-31T09:28:18;9.60;;;4.47;;
72125;SDS011;59999;51.676;22.650;2023-08-31T09:30:46;12.20;;;4.88;;
72125;SDS011;59999;51.676;22.650;2023-08-31T09:33:17;13.65;;;6.13;;
72125;SDS011;59999;51.676;22.650;2023-08-31T09:35:50;9.55;;;4.68;;
72125;SDS011;59999;51.676;22.650;2023-08-31T09:38:18;11.10;;;4.27;;
72125;SDS011;59999;51.676;22.650;2023-08-31T09:40:44;22.10;;;7.00;;
72125;SDS011;59999;51.676;22.650;2023-08-31T09:43:11;12.68;;;6.07;;
72125;SDS011;59999;51.676;22.650;2023-08-31T09:45:36;10.35;;;4.65;;
72125;SDS011;59999;51.676;22.650;2023-08-31T09:48:04;10.38;;;4.25;;
72125;SDS011;59999;51.676;22.650;2023-08-31T09:50:31;12.60;;;5.10;;
72125;SDS011;59999;51.676;22.650;2023-08-31T09:53:00;8.75;;;4.60;;
72125;SDS011;59999;51.676;22.650;2023-08-31T09:55:29;7.90;;;4.55;;
72125;SDS011;59999;51.676;22.650;2023-08-31T09:58:00;8.60;;;4.45;;
72125;SDS011;59999;51.676;22.650;2023-08-31T10:00:31;9.57;;;4.78;;
72125;SDS011;59999;51.676;22.650;2023-08-31T10:03:00;8.53;;;4.67;;
72125;SDS011;59999;51.676;22.650;2023-08-31T10:05:28;10.50;;;4.85;;
72125;SDS011;59999;51.676;22.650;2023-08-31T10:07:54;7.68;;;4.45;;
72125;SDS011;59999;51.676;22.650;2023-08-31T10:10:21;8.57;;;4.60;;
72125;SDS011;59999;51.676;22.650;2023-08-31T10:12:48;8.48;;;3.88;;
72125;SDS011;59999;51.676;22.650;2023-08-31T10:15:15;7.60;;;4.30;;
72125;SDS011;59999;51.676;22.650;2023-08-31T10:17:42;7.95;;;4.20;;
72125;SDS011;59999;51.676;22.650;2023-08-31T10:20:08;8.43;;;4.28;;
72125;SDS011;59999;51.676;22.650;2023-08-31T10:22:38;10.23;;;4.68;;
72125;SDS011;59999;51.676;22.650;2023-08-31T10:25:05;7.87;;;4.50;;
72125;SDS011;59999;51.676;22.650;2023-08-31T10:27:38;8.00;;;4.93;;
72125;SDS011;59999;51.676;22.650;2023-08-31T10:30:15;8.95;;;5.00;;
72125;SDS011;59999;51.676;22.650;2023-08-31T10:35:50;7.00;;;4.03;;
72125;SDS011;59999;51.676;22.650;2023-08-31T10:46:27;6.75;;;3.53;;
72125;SDS011;59999;51.676;22.650;2023-08-31T10:51:36;6.20;;;3.50;;
72125;SDS011;59999;51.676;22.650;2023-08-31T10:54:23;5.68;;;3.20;;
72125;SDS011;59999;51.676;22.650;2023-08-31T10:59:51;6.43;;;3.35;;
72125;SDS011;59999;51.676;22.650;2023-08-31T11:02:32;6.40;;;3.42;;
72125;SDS011;59999;51.676;22.650;2023-08-31T11:05:07;5.97;;;3.30;;
72125;SDS011;59999;51.676;22.650;2023-08-31T11:07:34;7.18;;;3.28;;
72125;SDS011;59999;51.676;22.650;2023-08-31T11:10:08;6.80;;;3.45;;
72125;SDS011;59999;51.676;22.650;2023-08-31T11:12:39;6.60;;;3.35;;
72125;SDS011;59999;51.676;22.650;2023-08-31T11:15:06;7.28;;;3.85;;
72125;SDS011;59999;51.676;22.650;2023-08-31T11:17:32;9.17;;;3.70;;
72125;SDS011;59999;51.676;22.650;2023-08-31T11:20:00;6.85;;;3.45;;
72125;SDS011;59999;51.676;22.650;2023-08-31T11:22:26;7.15;;;3.88;;
72125;SDS011;59999;51.676;22.650;2023-08-31T11:24:53;8.50;;;4.47;;
72125;SDS011;59999;51.676;22.650;2023-08-31T11:27:22;6.53;;;3.67;;
72125;SDS011;59999;51.676;22.650;2023-08-31T11:29:48;6.93;;;3.45;;
72125;SDS011;59999;51.676;22.650;2023-08-31T11:32:13;6.07;;;3.30;;
72125;SDS011;59999;51.676;22.650;2023-08-31T11:34:40;6.55;;;3.38;;
72125;SDS011;59999;51.676;22.650;2023-08-31T11:37:09;6.10;;;3.40;;
72125;SDS011;59999;51.676;22.650;2023-08-31T11:40:02;6.25;;;3.33;;
72125;SDS011;59999;51.676;22.650;2023-08-31T11:42:29;6.20;;;3.20;;
72125;SDS011;59999;51.676;22.650;2023-08-31T11:44:57;6.93;;;3.80;;
72125;SDS011;59999;51.676;22.650;2023-08-31T11:47:23;7.10;;;3.60;;
72125;SDS011;59999;51.676;22.650;2023-08-31T11:49:50;9.10;;;3.20;;
72125;SDS011;59999;51.676;22.650;2023-08-31T11:52:17;6.43;;;3.33;;
72125;SDS011;59999;51.676;22.650;2023-08-31T11:54:43;8.75;;;3.72;;
72125;SDS011;59999;51.676;22.650;2023-08-31T11:57:09;7.47;;;3.03;;
72125;SDS011;59999;51.676;22.650;2023-08-31T11:59:36;4.83;;;2.50;;
72125;SDS011;59999;51.676;22.650;2023-08-31T12:02:06;4.95;;;2.25;;
72125;SDS011;59999;51.676;22.650;2023-08-31T12:04:41;5.47;;;2.40;;
72125;SDS011;59999;51.676;22.650;2023-08-31T12:07:10;6.07;;;2.63;;
72125;SDS011;59999;51.676;22.650;2023-08-31T12:09:37;4.55;;;2.10;;
72125;SDS011;59999;51.676;22.650;2023-08-31T12:12:03;6.07;;;2.97;;
72125;SDS011;59999;51.676;22.650;2023-08-31T12:14:32;6.13;;;2.58;;
72125;SDS011;59999;51.676;22.650;2023-08-31T12:17:01;4.38;;;1.95;;
72125;SDS011;59999;51.676;22.650;2023-08-31T12:19:30;6.77;;;3.10;;
72125;SDS011;59999;51.676;22.650;2023-08-31T12:21:56;5.85;;;2.72;;
72125;SDS011;59999;51.676;22.650;2023-08-31T12:24:23;6.15;;;2.20;;
72125;SDS011;59999;51.676;22.650;2023-08-31T12:26:50;4.82;;;1.67;;
72125;SDS011;59999;51.676;22.650;2023-08-31T12:29:16;4.90;;;1.88;;
72125;SDS011;59999;51.676;22.650;2023-08-31T12:31:42;3.60;;;1.50;;
72125;SDS011;59999;51.676;22.650;2023-08-31T12:34:09;4.43;;;1.70;;
72125;SDS011;59999;51.676;22.650;2023-08-31T12:36:35;4.03;;;1.42;;
72125;SDS011;59999;51.676;22.650;2023-08-31T12:39:06;5.13;;;1.63;;
72125;SDS011;59999;51.676;22.650;2023-08-31T12:41:35;3.23;;;1.20;;
72125;SDS011;59999;51.676;22.650;2023-08-31T12:44:05;4.22;;;2.03;;
72125;SDS011;59999;51.676;22.650;2023-08-31T12:46:31;5.30;;;1.48;;
72125;SDS011;59999;51.676;22.650;2023-08-31T12:48:59;3.22;;;1.30;;
72125;SDS011;59999;51.676;22.650;2023-08-31T12:51:26;4.45;;;1.67;;
72125;SDS011;59999;51.676;22.650;2023-08-31T12:53:53;3.87;;;1.70;;
72125;SDS011;59999;51.676;22.650;2023-08-31T12:56:19;4.88;;;1.50;;
72125;SDS011;59999;51.676;22.650;2023-08-31T12:58:49;4.05;;;1.58;;
72125;SDS011;59999;51.676;22.650;2023-08-31T13:01:15;3.60;;;1.67;;
72125;SDS011;59999;51.676;22.650;2023-08-31T13:03:42;4.80;;;1.77;;
72125;SDS011;59999;51.676;22.650;2023-08-31T13:06:08;4.18;;;1.20;;
72125;SDS011;59999;51.676;22.650;2023-08-31T13:08:34;4.00;;;1.50;;
72125;SDS011;59999;51.676;22.650;2023-08-31T13:11:00;3.63;;;1.40;;
72125;SDS011;59999;51.676;22.650;2023-08-31T13:13:26;4.37;;;1.60;;
72125;SDS011;59999;51.676;22.650;2023-08-31T13:15:52;4.47;;;1.70;;
72125;SDS011;59999;51.676;22.650;2023-08-31T13:18:18;4.00;;;1.77;;
72125;SDS011;59999;51.676;22.650;2023-08-31T13:20:53;3.67;;;1.80;;
72125;SDS011;59999;51.676;22.650;2023-08-31T13:23:20;3.83;;;1.60;;
72125;SDS011;59999;51.676;22.650;2023-08-31T13:25:47;4.18;;;1.60;;
72125;SDS011;59999;51.676;22.650;2023-08-31T13:28:14;3.63;;;1.70;;
72125;SDS011;59999;51.676;22.650;2023-08-31T13:30:40;4.73;;;1.50;;
72125;SDS011;59999;51.676;22.650;2023-08-31T13:33:06;3.70;;;1.52;;
72125;SDS011;59999;51.676;22.650;2023-08-31T13:35:32;4.47;;;1.38;;
72125;SDS011;59999;51.676;22.650;2023-08-31T13:37:59;4.10;;;1.40;;
72125;SDS011;59999;51.676;22.650;2023-08-31T13:40:24;3.67;;;1.70;;
72125;SDS011;59999;51.676;22.650;2023-08-31T13:42:54;4.43;;;1.90;;
72125;SDS011;59999;51.676;22.650;2023-08-31T13:45:24;4.28;;;1.70;;
72125;SDS011;59999;51.676;22.650;2023-08-31T13:47:51;4.45;;;1.60;;
72125;SDS011;59999;51.676;22.650;2023-08-31T13:50:17;3.40;;;1.40;;
72125;SDS011;59999;51.676;22.650;2023-08-31T13:52:43;3.70;;;1.50;;
72125;SDS011;59999;51.676;22.650;2023-08-31T13:55:09;4.68;;;1.70;;
72125;SDS011;59999;51.676;22.650;2023-08-31T13:57:35;4.05;;;1.65;;
72125;SDS011;59999;51.676;22.650;2023-08-31T14:00:02;4.60;;;1.70;;
72125;SDS011;59999;51.676;22.650;2023-08-31T14:02:30;4.50;;;1.50;;
72125;SDS011;59999;51.676;22.650;2023-08-31T14:04:56;4.38;;;1.67;;
72125;SDS011;59999;51.676;22.650;2023-08-31T14:07:23;4.90;;;1.60;;
72125;SDS011;59999;51.676;22.650;2023-08-31T14:09:48;4.33;;;1.80;;
72125;SDS011;59999;51.676;22.650;2023-08-31T14:12:16;3.80;;;1.42;;
72125;SDS011;59999;51.676;22.650;2023-08-31T14:14:42;4.13;;;1.75;;
72125;SDS011;59999;51.676;22.650;2023-08-31T14:17:09;5.15;;;1.90;;
72125;SDS011;59999;51.676;22.650;2023-08-31T14:19:34;3.67;;;1.53;;
72125;SDS011;59999;51.676;22.650;2023-08-31T14:22:05;3.88;;;1.70;;
72125;SDS011;59999;51.676;22.650;2023-08-31T14:24:31;5.30;;;2.08;;
72125;SDS011;59999;51.676;22.650;2023-08-31T14:26:57;4.22;;;1.88;;
72125;SDS011;59999;51.676;22.650;2023-08-31T14:29:23;5.73;;;2.03;;
72125;SDS011;59999;51.676;22.650;2023-08-31T14:31:49;5.55;;;1.98;;
72125;SDS011;59999;51.676;22.650;2023-08-31T14:34:16;4.95;;;2.00;;
72125;SDS011;59999;51.676;22.650;2023-08-31T14:36:42;5.53;;;2.40;;
72125;SDS011;59999;51.676;22.650;2023-08-31T14:39:08;6.27;;;2.33;;
72125;SDS011;59999;51.676;22.650;2023-08-31T14:41:34;5.13;;;2.20;;
72125;SDS011;59999;51.676;22.650;2023-08-31T14:44:00;7.70;;;2.10;;
72125;SDS011;59999;51.676;22.650;2023-08-31T14:46:26;5.03;;;2.17;;
72125;SDS011;59999;51.676;22.650;2023-08-31T14:48:52;5.13;;;2.03;;
72125;SDS011;59999;51.676;22.650;2023-08-31T14:51:18;7.80;;;2.25;;
72125;SDS011;59999;51.676;22.650;2023-08-31T14:53:43;5.20;;;2.00;;
72125;SDS011;59999;51.676;22.650;2023-08-31T14:56:10;4.45;;;2.28;;
72125;SDS011;59999;51.676;22.650;2023-08-31T14:58:35;6.63;;;2.57;;